createdAt,value
2018-09-13T00:00:24.868Z,2.90
2018-09-13T00:01:28.013Z,3.08
2018-09-13T00:02:31.259Z,3.15
2018-09-13T00:03:34.486Z,3.20
2018-09-13T00:04:37.621Z,3.37
2018-09-13T00:05:40.836Z,3.12
2018-09-13T00:06:44.008Z,2.98
2018-09-13T00:07:47.165Z,3.15
2018-09-13T00:08:50.440Z,3.15
2018-09-13T00:09:53.608Z,3.52
2018-09-13T00:10:56.823Z,3.00
2018-09-13T00:12:00.061Z,2.98
2018-09-13T00:13:03.196Z,2.80
2018-09-13T00:14:06.432Z,3.10
2018-09-13T00:15:09.534Z,3.20
2018-09-13T00:16:12.661Z,3.08
2018-09-13T00:17:15.938Z,2.85
2018-09-13T00:18:18.984Z,3.30
2018-09-13T00:19:22.141Z,3.30
2018-09-13T00:20:25.344Z,3.40
2018-09-13T00:21:28.611Z,2.92
2018-09-13T00:22:31.891Z,3.22
2018-09-13T00:23:35.027Z,3.00
2018-09-13T00:24:38.080Z,2.95
2018-09-13T00:25:41.287Z,2.80
2018-09-13T00:26:44.439Z,3.37
2018-09-13T00:27:47.512Z,3.10
2018-09-13T00:28:50.666Z,3.17
2018-09-13T00:29:53.880Z,2.65
2018-09-13T00:30:57.170Z,2.98
2018-09-13T00:32:00.359Z,3.10
2018-09-13T00:33:03.523Z,3.33
2018-09-13T00:34:06.730Z,3.27
2018-09-13T00:35:09.939Z,2.92
2018-09-13T00:36:13.264Z,3.25
2018-09-13T00:37:16.407Z,2.85
2018-09-13T00:38:19.613Z,3.22
2018-09-13T00:39:22.836Z,3.20
2018-09-13T00:40:25.976Z,3.00
2018-09-13T00:41:29.204Z,3.20
2018-09-13T00:42:32.260Z,3.22
2018-09-13T00:43:35.477Z,3.00
2018-09-13T00:44:38.578Z,3.30
2018-09-13T00:45:41.792Z,3.35
2018-09-13T00:46:44.948Z,2.87
2018-09-13T00:47:48.024Z,3.20
2018-09-13T00:48:51.209Z,3.22
2018-09-13T00:49:54.240Z,3.50
2018-09-13T00:50:57.442Z,3.02
2018-09-13T00:52:00.531Z,3.17
2018-09-13T00:53:03.642Z,2.80
2018-09-13T00:54:06.807Z,2.80
2018-09-13T00:55:10.008Z,3.20
2018-09-13T00:56:13.215Z,2.98
2018-09-13T00:57:16.337Z,2.92
2018-09-13T00:58:19.482Z,3.47
2018-09-13T00:59:22.708Z,2.83
2018-09-13T01:00:25.855Z,3.30
2018-09-13T01:01:28.902Z,3.50
2018-09-13T01:02:31.960Z,2.90
2018-09-13T01:03:35.196Z,2.83
2018-09-13T01:04:38.280Z,3.10
2018-09-13T01:05:41.677Z,2.98
2018-09-13T01:06:44.720Z,2.55
2018-09-13T01:07:48.036Z,3.20
2018-09-13T01:08:51.462Z,2.92
2018-09-13T01:09:54.695Z,2.83
2018-09-13T01:10:57.954Z,3.15
2018-09-13T01:12:01.217Z,2.90
2018-09-13T01:13:04.385Z,2.85
2018-09-13T01:14:07.472Z,3.45
2018-09-13T01:15:10.649Z,3.00
2018-09-13T01:16:13.706Z,2.85
2018-09-13T01:17:17.030Z,3.00
2018-09-13T01:18:20.261Z,3.20
2018-09-13T01:19:23.308Z,3.37
2018-09-13T01:20:26.505Z,3.00
2018-09-13T01:21:29.732Z,3.00
2018-09-13T01:22:32.976Z,3.05
2018-09-13T01:23:36.127Z,3.25
2018-09-13T01:24:39.171Z,3.33
2018-09-13T01:25:42.362Z,3.33
2018-09-13T01:26:45.374Z,3.15
2018-09-13T01:27:48.623Z,3.12
2018-09-13T01:28:51.688Z,2.98
2018-09-13T01:29:54.923Z,3.10
2018-09-13T01:30:58.106Z,2.60
2018-09-13T01:32:01.171Z,2.90
2018-09-13T01:33:04.546Z,3.00
2018-09-13T01:34:07.811Z,3.00
2018-09-13T01:35:10.901Z,3.10
2018-09-13T01:36:14.058Z,3.25
2018-09-13T01:37:17.100Z,2.87
2018-09-13T01:38:20.273Z,3.37
2018-09-13T01:39:23.412Z,2.70
2018-09-13T01:40:26.652Z,3.30
2018-09-13T01:41:29.784Z,3.05
2018-09-13T01:42:33.053Z,3.30
2018-09-13T01:43:36.304Z,3.05
2018-09-13T01:44:39.380Z,2.95
2018-09-13T01:45:42.495Z,2.90
2018-09-13T01:46:45.564Z,3.10
2018-09-13T01:47:48.676Z,3.10
2018-09-13T01:48:51.752Z,3.00
2018-09-13T01:49:54.925Z,2.90
2018-09-13T01:50:59.120Z,2.95
2018-09-13T01:52:03.201Z,2.85
2018-09-13T01:53:06.487Z,3.10
2018-09-13T01:54:09.709Z,3.33
2018-09-13T01:55:13.121Z,3.40
2018-09-13T01:56:16.602Z,3.30
2018-09-13T01:57:19.696Z,2.85
2018-09-13T01:58:22.799Z,3.08
2018-09-13T01:59:26.005Z,2.80
2018-09-13T02:00:29.265Z,3.22
2018-09-13T02:01:32.343Z,3.40
2018-09-13T02:02:35.437Z,2.95
2018-09-13T02:03:38.694Z,2.95
2018-09-13T02:04:41.810Z,2.87
2018-09-13T02:05:44.923Z,3.25
2018-09-13T02:06:48.068Z,3.30
2018-09-13T02:07:51.165Z,3.00
2018-09-13T02:08:54.280Z,3.00
2018-09-13T02:09:57.484Z,3.20
2018-09-13T02:11:00.835Z,3.00
2018-09-13T02:12:03.983Z,2.90
2018-09-13T02:13:07.096Z,3.25
2018-09-13T02:14:10.237Z,2.95
2018-09-13T02:15:13.418Z,3.12
2018-09-13T02:16:16.580Z,3.00
2018-09-13T02:17:19.785Z,2.85
2018-09-13T02:18:22.987Z,3.30
2018-09-13T02:19:26.240Z,3.08
2018-09-13T02:20:29.469Z,2.72
2018-09-13T02:21:32.636Z,2.58
2018-09-13T02:22:35.792Z,3.05
2018-09-13T02:23:39.000Z,3.25
2018-09-13T02:24:42.110Z,3.15
2018-09-13T02:25:45.295Z,3.00
2018-09-13T02:26:48.391Z,3.20
2018-09-13T02:27:51.480Z,2.85
2018-09-13T02:28:54.623Z,2.80
2018-09-13T02:29:57.879Z,2.95
2018-09-13T02:31:01.209Z,3.10
2018-09-13T02:32:04.269Z,3.25
2018-09-13T02:33:07.429Z,2.85
2018-09-13T02:34:10.571Z,3.10
2018-09-13T02:35:13.628Z,2.80
2018-09-13T02:36:16.709Z,2.92
2018-09-13T02:37:19.857Z,2.83
2018-09-13T02:38:22.917Z,2.60
2018-09-13T02:39:26.068Z,2.98
2018-09-13T02:40:29.248Z,2.75
2018-09-13T02:41:32.370Z,3.00
2018-09-13T02:42:35.510Z,2.90
2018-09-13T02:43:38.691Z,2.87
2018-09-13T02:44:41.932Z,2.77
2018-09-13T02:45:45.144Z,2.80
2018-09-13T02:46:48.213Z,2.92
2018-09-13T02:47:51.658Z,2.85
2018-09-13T02:48:54.992Z,3.33
2018-09-13T02:49:58.512Z,3.00
2018-09-13T02:51:02.204Z,2.85
2018-09-13T02:52:05.459Z,2.80
2018-09-13T02:53:08.853Z,3.27
2018-09-13T02:54:12.546Z,2.80
2018-09-13T02:55:15.872Z,2.77
2018-09-13T02:56:19.061Z,3.00
2018-09-13T02:57:22.157Z,2.87
2018-09-13T02:58:25.299Z,3.30
2018-09-13T02:59:28.544Z,2.70
2018-09-13T03:00:31.725Z,2.90
2018-09-13T03:01:34.789Z,2.80
2018-09-13T03:02:38.036Z,2.85
2018-09-13T03:03:41.108Z,3.00
2018-09-13T03:04:44.204Z,2.98
2018-09-13T03:05:47.377Z,3.15
2018-09-13T03:06:50.692Z,2.90
2018-09-13T03:07:53.763Z,2.77
2018-09-13T03:08:56.948Z,2.95
2018-09-13T03:10:00.031Z,2.67
2018-09-13T03:11:03.233Z,2.60
2018-09-13T03:12:06.453Z,2.80
2018-09-13T03:13:09.493Z,3.10
2018-09-13T03:14:12.878Z,2.60
2018-09-13T03:15:16.012Z,2.60
2018-09-13T03:16:19.297Z,2.50
2018-09-13T03:17:22.452Z,2.92
2018-09-13T03:18:25.507Z,2.50
2018-09-13T03:19:28.520Z,2.55
2018-09-13T03:20:31.634Z,2.50
2018-09-13T03:21:34.692Z,2.52
2018-09-13T03:22:37.788Z,2.92
2018-09-13T03:23:40.864Z,2.60
2018-09-13T03:24:44.168Z,2.50
2018-09-13T03:25:47.295Z,2.70
2018-09-13T03:26:50.468Z,3.00
2018-09-13T03:27:53.537Z,2.70
2018-09-13T03:28:56.674Z,2.42
2018-09-13T03:29:59.787Z,2.22
2018-09-13T03:31:02.888Z,2.72
2018-09-13T03:32:05.964Z,2.75
2018-09-13T03:33:09.019Z,2.50
2018-09-13T03:34:12.084Z,2.40
2018-09-13T03:35:15.258Z,2.65
2018-09-13T03:36:18.366Z,2.52
2018-09-13T03:37:21.452Z,2.87
2018-09-13T03:38:24.604Z,2.47
2018-09-13T03:39:27.635Z,2.65
2018-09-13T03:40:30.740Z,2.75
2018-09-13T03:41:33.912Z,2.30
2018-09-13T03:42:37.088Z,2.90
2018-09-13T03:43:40.269Z,2.65
2018-09-13T03:44:43.533Z,2.65
2018-09-13T03:45:46.666Z,2.80
2018-09-13T03:46:49.920Z,2.37
2018-09-13T03:47:52.925Z,2.90
2018-09-13T03:48:55.985Z,2.30
2018-09-13T03:49:59.496Z,2.70
2018-09-13T03:51:02.796Z,2.65
2018-09-13T03:52:05.905Z,2.70
2018-09-13T03:53:09.216Z,2.58
2018-09-13T03:54:12.361Z,2.70
2018-09-13T03:55:15.379Z,2.65
2018-09-13T03:56:18.512Z,2.60
2018-09-13T03:57:21.778Z,2.55
2018-09-13T03:58:24.928Z,2.85
2018-09-13T03:59:28.119Z,2.70
2018-09-13T04:00:31.240Z,2.58
2018-09-13T04:01:34.286Z,2.70
2018-09-13T04:02:37.777Z,2.50
2018-09-13T04:03:41.321Z,2.50
2018-09-13T04:04:44.493Z,2.67
2018-09-13T04:05:47.693Z,2.70
2018-09-13T04:06:50.795Z,2.25
2018-09-13T04:07:53.810Z,2.50
2018-09-13T04:08:57.011Z,2.25
2018-09-13T04:10:00.127Z,2.45
2018-09-13T04:11:03.185Z,2.55
2018-09-13T04:12:06.284Z,2.58
2018-09-13T04:13:09.313Z,2.47
2018-09-13T04:14:12.360Z,2.67
2018-09-13T04:15:15.498Z,2.70
2018-09-13T04:16:18.646Z,2.45
2018-09-13T04:17:21.725Z,2.55
2018-09-13T04:18:24.819Z,2.70
2018-09-13T04:19:34.329Z,2.58
2018-09-13T04:20:37.333Z,2.40
2018-09-13T04:21:40.300Z,2.22
2018-09-13T04:22:43.335Z,2.45
2018-09-13T04:23:46.392Z,2.87
2018-09-13T04:24:49.409Z,2.47
2018-09-13T04:25:52.420Z,2.47
2018-09-13T04:26:55.459Z,2.70
2018-09-13T04:27:58.487Z,2.77
2018-09-13T04:29:01.477Z,2.42
2018-09-13T04:30:04.621Z,2.40
2018-09-13T04:31:07.592Z,2.70
2018-09-13T04:32:10.617Z,2.60
2018-09-13T04:33:13.625Z,3.10
2018-09-13T04:34:16.640Z,2.75
2018-09-13T04:35:19.716Z,2.67
2018-09-13T04:36:22.724Z,2.55
2018-09-13T04:37:25.737Z,2.60
2018-09-13T04:38:28.756Z,2.60
2018-09-13T04:39:31.760Z,2.33
2018-09-13T04:40:34.849Z,2.42
2018-09-13T04:41:37.954Z,2.45
2018-09-13T04:42:40.978Z,2.40
2018-09-13T04:43:44.052Z,2.80
2018-09-13T04:44:47.062Z,2.55
2018-09-13T04:45:50.151Z,2.30
2018-09-13T04:46:53.260Z,2.87
2018-09-13T04:47:56.314Z,2.33
2018-09-13T04:48:59.388Z,2.50
2018-09-13T04:50:02.383Z,2.60
2018-09-13T04:51:05.621Z,2.40
2018-09-13T04:52:08.679Z,2.40
2018-09-13T04:53:11.672Z,2.87
2018-09-13T04:54:14.868Z,2.42
2018-09-13T04:55:17.944Z,2.65
2018-09-13T04:56:20.987Z,2.30
2018-09-13T04:57:24.041Z,2.90
2018-09-13T04:58:27.093Z,2.60
2018-09-13T04:59:30.160Z,2.22
2018-09-13T05:00:33.207Z,2.55
2018-09-13T05:01:37.483Z,2.30
2018-09-13T05:02:40.597Z,2.58
2018-09-13T05:03:43.692Z,2.70
2018-09-13T05:04:46.795Z,2.70
2018-09-13T05:05:49.840Z,2.60
2018-09-13T05:06:52.920Z,2.65
2018-09-13T05:07:56.066Z,2.80
2018-09-13T05:08:59.145Z,2.52
2018-09-13T05:10:02.213Z,2.50
2018-09-13T05:11:05.313Z,2.55
2018-09-13T05:12:08.340Z,2.42
2018-09-13T05:13:11.529Z,2.35
2018-09-13T05:14:14.616Z,2.60
2018-09-13T05:15:17.928Z,2.62
2018-09-13T05:16:21.279Z,2.33
2018-09-13T05:17:24.393Z,2.67
2018-09-13T05:18:27.459Z,2.47
2018-09-13T05:19:30.503Z,2.33
2018-09-13T05:20:33.567Z,2.37
2018-09-13T05:21:36.759Z,2.17
2018-09-13T05:22:39.843Z,2.72
2018-09-13T05:23:42.880Z,2.58
2018-09-13T05:24:45.875Z,2.98
2018-09-13T05:25:49.064Z,2.70
2018-09-13T05:26:52.104Z,2.60
2018-09-13T05:27:55.132Z,2.80
2018-09-13T05:28:58.233Z,2.35
2018-09-13T05:30:01.320Z,2.47
2018-09-13T05:31:04.359Z,2.47
2018-09-13T05:32:07.560Z,2.58
2018-09-13T05:33:10.568Z,2.90
2018-09-13T05:34:13.799Z,2.35
2018-09-13T05:35:16.887Z,2.20
2018-09-13T05:36:19.999Z,2.47
2018-09-13T05:37:23.080Z,2.67
2018-09-13T05:38:26.248Z,2.80
2018-09-13T05:39:29.204Z,2.40
2018-09-13T05:40:32.239Z,2.52
2018-09-13T05:41:35.361Z,2.55
2018-09-13T05:42:38.420Z,2.77
2018-09-13T05:43:41.443Z,2.60
2018-09-13T05:44:44.633Z,2.30
2018-09-13T05:45:47.589Z,2.70
2018-09-13T05:46:50.649Z,2.50
2018-09-13T05:47:53.693Z,2.50
2018-09-13T05:48:56.695Z,2.33
2018-09-13T05:49:59.702Z,2.60
2018-09-13T05:51:02.792Z,2.52
2018-09-13T05:52:05.749Z,2.65
2018-09-13T05:53:08.836Z,2.45
2018-09-13T05:54:11.919Z,2.67
2018-09-13T05:55:14.980Z,2.72
2018-09-13T05:56:18.040Z,2.40
2018-09-13T05:57:21.275Z,2.30
2018-09-13T05:58:24.311Z,2.77
2018-09-13T05:59:27.312Z,2.55
2018-09-13T06:00:30.368Z,2.17
2018-09-13T06:01:33.424Z,2.80
2018-09-13T06:02:36.538Z,2.42
2018-09-13T06:03:39.568Z,2.47
2018-09-13T06:04:42.596Z,2.50
2018-09-13T06:05:45.680Z,2.35
2018-09-13T06:06:48.869Z,3.00
2018-09-13T06:07:51.985Z,2.33
2018-09-13T06:08:55.096Z,2.40
2018-09-13T06:09:58.097Z,2.50
2018-09-13T06:11:01.105Z,2.52
2018-09-13T06:12:04.115Z,2.62
2018-09-13T06:13:07.132Z,2.50
2018-09-13T06:14:10.101Z,2.62
2018-09-13T06:15:13.173Z,2.50
2018-09-13T06:16:16.255Z,2.45
2018-09-13T06:17:22.101Z,2.50
2018-09-13T06:18:25.181Z,2.40
2018-09-13T06:19:28.264Z,2.77
2018-09-13T06:20:31.521Z,2.58
2018-09-13T06:21:34.702Z,2.17
2018-09-13T06:22:37.810Z,2.33
2018-09-13T06:23:41.121Z,2.70
2018-09-13T06:24:44.214Z,2.40
2018-09-13T06:25:47.353Z,2.25
2018-09-13T06:26:50.436Z,2.77
2018-09-13T06:27:53.477Z,2.58
2018-09-13T06:28:56.591Z,2.65
2018-09-13T06:29:59.576Z,2.80
2018-09-13T06:31:02.641Z,2.20
2018-09-13T06:32:05.856Z,3.00
2018-09-13T06:33:08.933Z,2.60
2018-09-13T06:34:12.112Z,2.52
2018-09-13T06:35:15.135Z,2.58
2018-09-13T06:36:18.141Z,2.70
2018-09-13T06:37:21.162Z,2.58
2018-09-13T06:38:24.183Z,2.42
2018-09-13T06:39:27.264Z,3.40
2018-09-13T06:40:30.276Z,4.85
2018-09-13T06:41:33.399Z,4.28
2018-09-13T06:42:36.695Z,4.60
2018-09-13T06:43:39.723Z,4.05
2018-09-13T06:44:42.764Z,3.55
2018-09-13T06:45:45.774Z,3.05
2018-09-13T06:46:48.832Z,2.83
2018-09-13T06:47:51.856Z,2.75
2018-09-13T06:48:54.956Z,2.72
2018-09-13T06:49:58.019Z,2.80
2018-09-13T06:51:01.151Z,2.85
2018-09-13T06:52:04.174Z,2.55
2018-09-13T06:53:07.268Z,2.65
2018-09-13T06:54:10.378Z,2.87
2018-09-13T06:55:13.359Z,3.02
2018-09-13T06:56:16.352Z,3.10
2018-09-13T06:57:19.387Z,3.12
2018-09-13T06:58:22.405Z,2.35
2018-09-13T06:59:25.443Z,3.12
2018-09-13T07:00:28.725Z,3.50
2018-09-13T07:01:31.829Z,3.35
2018-09-13T07:02:35.064Z,3.92
2018-09-13T07:03:38.028Z,3.17
2018-09-13T07:04:41.103Z,3.30
2018-09-13T07:05:44.157Z,3.77
2018-09-13T07:06:47.231Z,3.10
2018-09-13T07:07:50.342Z,4.95
2018-09-13T07:08:53.377Z,4.75
2018-09-13T07:09:56.452Z,5.97
2018-09-13T07:10:59.482Z,5.45
2018-09-13T07:12:02.514Z,5.75
2018-09-13T07:13:05.612Z,5.67
2018-09-13T07:14:08.680Z,5.05
2018-09-13T07:15:11.747Z,6.00
2018-09-13T07:16:14.845Z,5.60
2018-09-13T07:17:18.420Z,5.25
2018-09-13T07:18:21.733Z,5.37
2018-09-13T07:19:25.076Z,5.10
2018-09-13T07:20:28.539Z,5.10
2018-09-13T07:21:32.112Z,5.72
2018-09-13T07:22:35.408Z,6.03
2018-09-13T07:23:38.782Z,6.17
2018-09-13T07:24:41.773Z,5.65
2018-09-13T07:25:45.987Z,5.70
2018-09-13T07:26:49.103Z,5.75
2018-09-13T07:27:52.125Z,5.87
2018-09-13T07:28:55.249Z,6.15
2018-09-13T07:29:58.354Z,5.87
2018-09-13T07:31:01.505Z,5.62
2018-09-13T07:32:04.400Z,6.90
2018-09-13T07:33:07.561Z,6.03
2018-09-13T07:34:10.599Z,7.28
2018-09-13T07:35:13.709Z,6.60
2018-09-13T07:36:16.894Z,6.95
2018-09-13T07:37:20.270Z,6.10
2018-09-13T07:38:23.683Z,6.78
2018-09-13T07:39:26.971Z,7.10
2018-09-13T07:40:30.099Z,6.90
2018-09-13T07:41:33.196Z,7.50
2018-09-13T07:42:36.265Z,8.35
2018-09-13T07:43:39.475Z,7.37
2018-09-13T07:44:42.612Z,8.03
2018-09-13T07:45:45.740Z,8.15
2018-09-13T07:46:48.779Z,8.75
2018-09-13T07:47:51.865Z,7.80
2018-09-13T07:48:54.962Z,8.33
2018-09-13T07:49:58.230Z,9.03
2018-09-13T07:51:01.279Z,7.87
2018-09-13T07:52:04.442Z,8.53
2018-09-13T07:53:07.538Z,8.60
2018-09-13T07:54:10.605Z,8.28
2018-09-13T07:55:13.648Z,8.75
2018-09-13T07:56:16.870Z,8.78
2018-09-13T07:57:20.076Z,8.13
2018-09-13T07:58:23.324Z,7.70
2018-09-13T07:59:26.488Z,8.65
2018-09-13T08:00:29.685Z,8.43
2018-09-13T08:01:32.884Z,8.08
2018-09-13T08:02:36.036Z,7.85
2018-09-13T08:03:39.431Z,8.85
2018-09-13T08:04:42.987Z,8.03
2018-09-13T08:05:46.327Z,8.40
2018-09-13T08:06:49.665Z,7.45
2018-09-13T08:07:52.864Z,8.08
2018-09-13T08:08:56.424Z,8.38
2018-09-13T08:09:59.568Z,7.70
2018-09-13T08:11:02.627Z,7.92
2018-09-13T08:12:05.891Z,7.50
2018-09-13T08:13:08.764Z,8.28
2018-09-13T08:14:11.832Z,7.83
2018-09-13T08:15:14.912Z,8.35
2018-09-13T08:16:18.064Z,7.37
2018-09-13T08:17:21.141Z,8.05
2018-09-13T08:18:24.185Z,7.97
2018-09-13T08:19:27.245Z,7.95
2018-09-13T08:20:30.263Z,8.15
2018-09-13T08:21:33.281Z,7.33
2018-09-13T08:22:36.383Z,7.30
2018-09-13T08:23:39.686Z,8.38
2018-09-13T08:24:42.744Z,7.10
2018-09-13T08:25:45.756Z,7.45
2018-09-13T08:26:48.740Z,6.60
2018-09-13T08:27:51.952Z,6.47
2018-09-13T08:28:55.029Z,7.12
2018-09-13T08:29:58.081Z,6.35
2018-09-13T08:31:01.282Z,7.12
2018-09-13T08:32:04.329Z,6.67
2018-09-13T08:33:07.495Z,6.00
2018-09-13T08:34:10.487Z,6.75
2018-09-13T08:35:13.802Z,6.05
2018-09-13T08:36:16.777Z,6.37
2018-09-13T08:37:20.000Z,6.70
2018-09-13T08:38:23.079Z,5.75
2018-09-13T08:39:26.095Z,6.58
2018-09-13T08:40:29.243Z,6.85
2018-09-13T08:41:32.284Z,7.30
2018-09-13T08:42:35.373Z,7.28
2018-09-13T08:43:38.474Z,7.80
2018-09-13T08:44:42.636Z,7.00
2018-09-13T08:45:45.852Z,7.47
2018-09-13T08:46:48.900Z,6.87
2018-09-13T08:47:51.980Z,7.00
2018-09-13T08:48:55.090Z,7.00
2018-09-13T08:49:58.104Z,7.25
2018-09-13T08:51:01.167Z,7.95
2018-09-13T08:52:04.234Z,7.80
2018-09-13T08:53:07.319Z,7.55
2018-09-13T08:54:10.355Z,6.80
2018-09-13T08:55:13.404Z,7.35
2018-09-13T08:56:16.473Z,6.60
2018-09-13T08:57:19.532Z,7.08
2018-09-13T08:58:22.698Z,6.75
2018-09-13T08:59:25.853Z,6.80
2018-09-13T09:00:28.928Z,7.17
2018-09-13T09:01:31.970Z,7.08
2018-09-13T09:02:35.447Z,7.10
2018-09-13T09:03:38.541Z,6.87
2018-09-13T09:04:41.626Z,7.37
2018-09-13T09:05:44.756Z,6.70
2018-09-13T09:06:47.919Z,7.33
2018-09-13T09:07:51.007Z,6.85
2018-09-13T09:08:54.135Z,7.40
2018-09-13T09:09:57.221Z,6.72
2018-09-13T09:11:00.300Z,7.28
2018-09-13T09:12:03.373Z,6.45
2018-09-13T09:13:06.446Z,6.60
2018-09-13T09:14:09.616Z,7.30
2018-09-13T09:15:12.641Z,6.47
2018-09-13T09:16:15.808Z,6.67
2018-09-13T09:17:18.912Z,8.28
2018-09-13T09:18:21.963Z,6.87
2018-09-13T09:19:25.030Z,6.42
2018-09-13T09:20:28.144Z,7.15
2018-09-13T09:21:39.290Z,7.42
2018-09-13T09:22:42.374Z,7.10
2018-09-13T09:23:45.449Z,7.40
2018-09-13T09:24:48.569Z,7.42
2018-09-13T09:25:51.723Z,7.10
2018-09-13T09:26:54.858Z,7.17
2018-09-13T09:27:58.145Z,6.87
2018-09-13T09:29:01.437Z,7.67
2018-09-13T09:30:05.059Z,6.85
2018-09-13T09:31:08.238Z,7.08
2018-09-13T09:32:11.301Z,7.60
2018-09-13T09:33:14.322Z,6.67
2018-09-13T09:34:17.512Z,7.10
2018-09-13T09:35:20.594Z,7.45
2018-09-13T09:36:23.729Z,6.55
2018-09-13T09:37:26.704Z,7.03
2018-09-13T09:38:29.699Z,7.47
2018-09-13T09:39:32.853Z,7.28
2018-09-13T09:40:35.955Z,7.42
2018-09-13T09:41:39.107Z,7.37
2018-09-13T09:42:42.127Z,6.95
2018-09-13T09:43:45.271Z,7.30
2018-09-13T09:44:48.461Z,7.03
2018-09-13T09:45:51.530Z,6.30
2018-09-13T09:46:54.593Z,7.25
2018-09-13T09:47:57.663Z,6.97
2018-09-13T09:49:00.804Z,6.53
2018-09-13T09:50:04.051Z,6.87
2018-09-13T09:51:07.056Z,6.15
2018-09-13T09:52:10.350Z,6.75
2018-09-13T09:53:13.319Z,6.65
2018-09-13T09:54:16.401Z,6.80
2018-09-13T09:55:22.321Z,6.42
2018-09-13T09:56:25.603Z,7.08
2018-09-13T09:57:28.708Z,6.87
2018-09-13T09:58:31.859Z,7.03
2018-09-13T09:59:35.856Z,6.65
2018-09-13T10:00:44.222Z,6.80
2018-09-13T10:01:53.296Z,6.75
2018-09-13T10:02:56.509Z,7.33
2018-09-13T10:04:01.931Z,6.70
2018-09-13T10:05:04.979Z,6.95
2018-09-13T10:06:08.214Z,7.03
2018-09-13T10:07:11.220Z,7.60
2018-09-13T10:08:14.243Z,7.62
2018-09-13T10:09:17.288Z,6.90
2018-09-13T10:10:20.277Z,7.45
2018-09-13T10:11:23.331Z,6.58
2018-09-13T10:12:26.412Z,7.58
2018-09-13T10:13:29.456Z,6.53
2018-09-13T10:14:32.488Z,7.72
2018-09-13T10:15:40.964Z,7.62
2018-09-13T10:16:49.228Z,7.30
2018-09-13T10:17:57.806Z,6.70
2018-09-13T10:19:06.300Z,7.75
2018-09-13T10:20:14.744Z,7.12
2018-09-13T10:21:23.136Z,7.30
2018-09-13T10:22:31.631Z,6.80
2018-09-13T10:23:40.218Z,7.20
2018-09-13T10:24:48.646Z,6.65
2018-09-13T10:25:57.075Z,6.80
2018-09-13T10:27:05.941Z,6.80
2018-09-13T10:28:14.228Z,7.45
2018-09-13T10:29:22.763Z,7.37
2018-09-13T10:30:31.451Z,7.35
2018-09-13T10:31:39.863Z,7.20
2018-09-13T10:32:48.551Z,7.58
2018-09-13T10:33:57.020Z,7.60
2018-09-13T10:35:05.592Z,7.78
2018-09-13T10:36:14.240Z,7.90
2018-09-13T10:37:22.608Z,7.17
2018-09-13T10:38:31.084Z,7.55
2018-09-13T10:39:39.575Z,7.08
2018-09-13T10:40:48.459Z,8.20
2018-09-13T10:41:56.871Z,8.40
2018-09-13T10:43:05.308Z,7.72
2018-09-13T10:44:13.771Z,7.50
2018-09-13T10:45:22.428Z,7.35
2018-09-13T10:46:26.853Z,8.10
2018-09-13T10:47:35.243Z,8.43
2018-09-13T10:48:38.220Z,7.97
2018-09-13T10:49:46.655Z,7.22
2018-09-13T10:50:55.032Z,7.62
2018-09-13T10:52:03.169Z,7.30
2018-09-13T10:53:10.615Z,7.47
2018-09-13T10:54:19.158Z,7.45
2018-09-13T10:55:22.556Z,6.95
2018-09-13T10:56:25.577Z,7.15
2018-09-13T10:57:34.014Z,7.33
2018-09-13T10:58:37.101Z,6.85
2018-09-13T10:59:40.217Z,7.12
2018-09-13T11:00:43.328Z,7.50
2018-09-13T11:01:46.429Z,7.47
2018-09-13T11:02:49.544Z,7.05
2018-09-13T11:03:52.963Z,7.12
2018-09-13T11:04:56.040Z,7.20
2018-09-13T11:05:59.040Z,7.00
2018-09-13T11:07:02.144Z,6.95
2018-09-13T11:08:05.197Z,7.35
2018-09-13T11:09:08.241Z,6.75
2018-09-13T11:10:11.325Z,7.35
2018-09-13T11:11:14.546Z,7.10
2018-09-13T11:12:18.897Z,7.20
2018-09-13T11:13:32.314Z,6.65
2018-09-13T11:14:40.513Z,7.40
2018-09-13T11:15:43.659Z,7.10
2018-09-13T11:16:46.695Z,7.50
2018-09-13T11:17:49.801Z,6.85
2018-09-13T11:18:52.793Z,7.28
2018-09-13T11:19:55.800Z,6.58
2018-09-13T11:20:58.805Z,7.35
2018-09-13T11:22:01.835Z,7.60
2018-09-13T11:23:05.007Z,7.08
2018-09-13T11:24:08.185Z,6.70
2018-09-13T11:25:11.288Z,6.97
2018-09-13T11:26:14.316Z,6.83
2018-09-13T11:27:17.385Z,6.97
2018-09-13T11:28:20.423Z,7.60
2018-09-13T11:29:23.528Z,7.03
2018-09-13T11:30:26.845Z,7.37
2018-09-13T11:31:29.928Z,6.80
2018-09-13T11:32:33.041Z,7.40
2018-09-13T11:33:36.088Z,6.95
2018-09-13T11:34:39.125Z,6.97
2018-09-13T11:35:42.165Z,7.42
2018-09-13T11:36:45.206Z,7.55
2018-09-13T11:37:48.224Z,7.62
2018-09-13T11:38:51.410Z,7.17
2018-09-13T11:39:54.765Z,7.85
2018-09-13T11:40:58.078Z,7.05
2018-09-13T11:42:01.094Z,7.55
2018-09-13T11:43:04.103Z,6.78
2018-09-13T11:44:07.181Z,7.28
2018-09-13T11:45:10.695Z,7.22
2018-09-13T11:46:14.004Z,6.97
2018-09-13T11:47:17.030Z,7.25
2018-09-13T11:48:20.066Z,7.30
2018-09-13T11:49:23.159Z,6.72
2018-09-13T11:50:26.131Z,7.00
2018-09-13T11:51:29.217Z,6.50
2018-09-13T11:52:32.284Z,6.65
2018-09-13T11:53:35.438Z,6.85
2018-09-13T11:54:38.501Z,7.08
2018-09-13T11:55:43.967Z,6.70
2018-09-13T11:56:47.068Z,6.70
2018-09-13T11:57:50.350Z,7.05
2018-09-13T11:58:53.424Z,6.55
2018-09-13T11:59:56.496Z,7.42
2018-09-13T12:00:59.698Z,6.87
2018-09-13T12:02:02.790Z,7.35
2018-09-13T12:03:05.796Z,6.53
2018-09-13T12:04:08.888Z,6.67
2018-09-13T12:05:12.009Z,7.20
2018-09-13T12:06:15.052Z,7.28
2018-09-13T12:07:18.136Z,6.65
2018-09-13T12:08:21.278Z,6.85
2018-09-13T12:09:24.423Z,6.42
2018-09-13T12:10:27.356Z,6.53
2018-09-13T12:11:31.245Z,6.47
2018-09-13T12:12:34.359Z,6.25
2018-09-13T12:13:37.428Z,6.85
2018-09-13T12:14:40.496Z,5.67
2018-09-13T12:15:43.533Z,6.83
2018-09-13T12:16:46.647Z,7.05
2018-09-13T12:17:49.756Z,6.62
2018-09-13T12:18:52.916Z,6.55
2018-09-13T12:19:55.960Z,6.30
2018-09-13T12:20:58.987Z,6.67
2018-09-13T12:22:02.117Z,7.05
2018-09-13T12:23:05.297Z,6.47
2018-09-13T12:24:08.271Z,5.90
2018-09-13T12:25:11.639Z,6.33
2018-09-13T12:26:14.948Z,6.35
2018-09-13T12:27:18.652Z,7.10
2018-09-13T12:28:21.694Z,6.87
2018-09-13T12:29:24.812Z,5.85
2018-09-13T12:30:27.897Z,6.78
2018-09-13T12:31:30.992Z,6.85
2018-09-13T12:32:34.145Z,6.72
2018-09-13T12:33:37.274Z,6.67
2018-09-13T12:34:40.268Z,6.10
2018-09-13T12:35:43.352Z,7.10
2018-09-13T12:36:46.464Z,6.90
2018-09-13T12:37:49.551Z,7.70
2018-09-13T12:38:52.705Z,6.75
2018-09-13T12:39:55.864Z,7.53
2018-09-13T12:40:59.156Z,6.95
2018-09-13T12:42:02.459Z,7.67
2018-09-13T12:43:05.507Z,7.12
2018-09-13T12:44:08.857Z,7.20
2018-09-13T12:45:11.985Z,7.60
2018-09-13T12:46:15.080Z,7.40
2018-09-13T12:47:18.115Z,7.47
2018-09-13T12:48:21.260Z,6.60
2018-09-13T12:49:24.284Z,7.20
2018-09-13T12:50:27.436Z,7.08
2018-09-13T12:51:30.525Z,7.37
2018-09-13T12:52:33.720Z,7.65
2018-09-13T12:53:36.733Z,6.85
2018-09-13T12:54:39.765Z,7.00
2018-09-13T12:55:48.299Z,7.47
2018-09-13T12:56:51.315Z,6.75
2018-09-13T12:57:54.342Z,7.28
2018-09-13T12:58:57.447Z,6.70
2018-09-13T13:00:00.519Z,6.90
2018-09-13T13:01:03.606Z,6.75
2018-09-13T13:02:06.564Z,6.05
2018-09-13T13:03:09.769Z,6.75
2018-09-13T13:04:12.814Z,6.28
2018-09-13T13:05:15.809Z,5.95
2018-09-13T13:06:18.848Z,6.17
2018-09-13T13:07:21.955Z,6.28
2018-09-13T13:08:24.933Z,5.72
2018-09-13T13:09:27.985Z,5.90
2018-09-13T13:10:31.024Z,6.00
2018-09-13T13:11:34.103Z,6.47
2018-09-13T13:12:37.144Z,6.08
2018-09-13T13:13:40.140Z,6.05
2018-09-13T13:14:44.236Z,5.90
2018-09-13T13:15:47.299Z,5.50
2018-09-13T13:16:50.393Z,5.67
2018-09-13T13:17:53.466Z,5.03
2018-09-13T13:18:56.508Z,5.75
2018-09-13T13:19:59.592Z,5.50
2018-09-13T13:21:02.599Z,5.67
2018-09-13T13:22:05.635Z,5.40
2018-09-13T13:23:08.682Z,4.80
2018-09-13T13:24:11.704Z,5.58
2018-09-13T13:25:14.872Z,5.67
2018-09-13T13:26:17.890Z,5.72
2018-09-13T13:27:20.947Z,5.35
2018-09-13T13:28:23.984Z,5.22
2018-09-13T13:29:26.972Z,5.00
2018-09-13T13:30:30.027Z,5.35
2018-09-13T13:31:33.117Z,5.80
2018-09-13T13:32:36.175Z,5.28
2018-09-13T13:33:39.250Z,5.03
2018-09-13T13:34:42.208Z,5.30
2018-09-13T13:35:45.261Z,5.12
2018-09-13T13:36:48.352Z,5.40
2018-09-13T13:37:51.485Z,4.72
2018-09-13T13:38:54.596Z,5.25
2018-09-13T13:39:57.624Z,5.40
2018-09-13T13:41:00.744Z,4.92
2018-09-13T13:42:03.832Z,5.12
2018-09-13T13:43:06.808Z,5.25
2018-09-13T13:44:10.028Z,5.17
2018-09-13T13:45:13.093Z,5.67
2018-09-13T13:46:16.284Z,5.80
2018-09-13T13:47:19.345Z,5.10
2018-09-13T13:48:22.385Z,5.28
2018-09-13T13:49:25.554Z,5.50
2018-09-13T13:50:28.553Z,5.47
2018-09-13T13:51:31.588Z,5.92
2018-09-13T13:52:34.701Z,5.28
2018-09-13T13:53:47.380Z,5.55
2018-09-13T13:54:50.371Z,5.45
2018-09-13T13:55:53.435Z,5.42
2018-09-13T13:56:56.474Z,5.00
2018-09-13T13:57:59.573Z,5.25
2018-09-13T13:59:02.864Z,5.20
2018-09-13T14:00:05.879Z,5.67
2018-09-13T14:01:08.988Z,5.17
2018-09-13T14:02:12.022Z,5.40
2018-09-13T14:03:15.137Z,5.28
2018-09-13T14:04:18.211Z,5.12